Date,TemperatureHighF,TemperatureAvgF,TemperatureLowF,DewpointHighF,DewpointAvgF,DewpointLowF,HumidityHigh,HumidityAvg,HumidityLow,PressureMaxIn,PressureMinIn,WindSpeedMaxMPH,WindSpeedAvgMPH,GustSpeedMaxMPH,PrecipitationSumIn
2012-1-1,47,24,3,13,-7,-23,33,25,21,32.11,31.92,12,3,12,0.00
2012-1-2,50,26,9,14,4,-8,68,40,21,32.13,32.01,10,2,10,0.00
2012-1-3,48,28,14,14,4,0,55,39,21,32.01,31.88,16,3,16,0.00
2012-1-4,50,28,9,14,2,-5,60,35,21,32.08,32.01,8,2,8,0.00
2012-1-5,54,30,14,17,8,-2,62,41,22,32.04,31.74,12,2,12,0.00
2012-1-6,42,27,13,15,6,-4,62,43,24,31.75,31.65,17,3,17,0.00
2012-1-7,31,20,12,24,11,2,82,70,59,31.66,31.52,11,2,11,0.00
2012-1-8,32,14,0,13,2,-9,82,60,33,31.81,31.64,9,2,9,0.00
2012-1-9,48,22,0,24,10,-10,82,61,35,31.87,31.79,10,2,10,0.07
2012-1-10,51,26,11,21,10,0,86,55,21,31.83,31.58,11,2,11,0.07
2012-1-11,24,15,-3,15,-4,-24,77,45,24,31.72,31.54,18,5,18,0.00
2012-1-12,32,10,-6,0,-16,-26,39,31,21,31.74,31.63,15,4,15,0.00
2012-1-13,34,16,2,0,-9,-20,46,33,21,31.85,31.69,19,4,19,0.00
2012-1-14,48,27,8,14,0,-10,54,32,21,31.87,31.74,11,3,11,0.00
2012-1-15,47,28,15,13,0,-7,46,31,21,31.74,31.51,17,4,17,0.00
2012-1-16,30,19,0,23,10,-10,83,66,43,31.54,31.32,17,4,125,0.00
2012-1-17,22,5,-8,-4,-15,-23,61,41,21,31.65,31.53,23,4,23,0.00
2012-1-18,38,25,14,15,6,-12,69,45,26,31.65,31.55,28,7,28,0.02
2012-1-19,50,33,21,27,21,13,76,62,39,31.68,31.55,19,3,19,0.00
2012-1-20,43,28,12,26,16,4,85,62,33,31.68,31.53,15,3,15,0.00
2012-1-21,43,25,9,28,16,0,87,70,39,31.63,31.20,24,3,24,0.01
2012-1-22,29,18,8,17,6,-5,84,60,28,31.62,31.20,16,4,16,0.00
2012-1-23,41,21,5,13,4,-9,64,48,28,31.61,31.50,15,4,15,0.00
2012-1-24,35,18,7,16,6,-2,73,59,41,31.82,31.51,11,2,11,0.00
2012-1-25,45,24,4,20,4,-14,67,44,23,31.88,31.78,20,4,20,0.00
2012-1-26,47,27,15,19,11,4,79,54,22,31.81,31.56,15,3,15,0.00
2012-1-27,31,18,4,19,1,-13,79,51,23,31.81,31.56,15,4,15,0.00
2012-1-28,34,15,-1,1,-12,-24,45,30,21,31.88,31.79,14,4,14,0.00
2012-1-29,47,27,15,19,4,-13,57,39,24,31.90,31.77,15,3,15,0.00
2012-1-30,51,26,10,14,4,-5,67,41,21,31.78,31.58,12,3,12,0.00
2012-1-31,40,24,14,8,2,-8,58,39,21,31.75,31.63,11,3,11,0.00
2012-2-1,44,24,9,8,1,-7,56,38,21,31.82,31.70,11,3,11,0.00
2012-2-2,32,20,12,15,7,-4,76,58,38,31.70,31.50,11,3,11,0.00
2012-2-3,28,16,3,10,5,-6,73,62,34,31.80,31.58,12,2,12,0.00
2012-2-4,32,10,-7,7,-6,-18,65,50,26,31.85,31.78,12,2,12,0.01
2012-2-5,34,13,-1,9,-1,-13,69,55,27,31.85,31.72,13,2,13,0.00
2012-2-6,34,15,2,17,4,-7,70,62,44,31.72,31.59,8,2,8,0.07
2012-2-7,34,10,-8,11,-4,-21,64,54,34,31.78,31.71,6,2,8,0.01
2012-2-8,42,20,-4,17,5,-16,75,55,27,31.78,31.73,9,3,13,0.05
2012-2-9,38,21,8,15,7,-3,71,56,25,31.79,31.70,16,4,16,0.01
2012-2-10,38,20,1,14,6,-10,66,55,30,31.79,31.69,15,3,15,0.00
2012-2-11,46,27,13,23,12,5,75,56,25,31.74,31.63,11,3,11,0.00
2012-2-12,35,17,6,24,8,-3,75,68,58,31.64,31.36,9,2,9,0.01
2012-2-13,37,21,9,19,6,-3,76,55,25,31.47,31.37,11,2,11,0.01
2012-2-14,38,16,1,12,-1,-11,65,48,22,31.47,31.40,15,3,15,0.00
2012-2-15,40,17,-1,10,-1,-12,66,47,22,31.68,31.46,11,2,11,0.00
2012-2-16,41,19,5,11,0,-6,65,47,21,31.75,31.67,13,3,13,0.00
2012-2-17,43,17,-3,7,-2,-14,64,46,21,31.73,31.62,15,3,15,0.00
2012-2-18,43,18,-3,9,-4,-15,66,40,21,31.68,31.57,13,2,13,0.00
2012-2-19,31,16,0,15,-1,-19,67,48,30,31.57,31.29,15,3,15,0.00
2012-2-20,26,12,1,2,-10,-18,59,38,23,31.60,31.33,15,4,15,0.00
2012-2-21,35,22,10,11,5,-5,62,49,26,31.67,31.55,19,5,19,0.00
2012-2-22,48,33,22,22,16,11,66,51,27,31.68,31.37,28,7,28,0.00
2012-2-23,34,16,5,18,4,-7,77,59,43,31.62,31.27,31,7,33,0.00
2012-2-24,34,11,-2,14,-5,-19,68,50,29,31.77,31.62,9,-3,9,1.25
2012-2-25,46,29,25,8,-3,-8,30,25,21,31.47,31.42,32,6,32,0.00
2012-2-26,32,15,-5,-1,-11,-27,53,31,21,31.70,31.43,23,4,23,0.00
2012-2-27,44,18,-8,20,-2,-28,76,42,23,31.71,31.48,17,4,17,0.00
2012-2-28,35,23,15,20,14,0,87,69,31,31.67,31.32,22,5,22,0.08
2012-2-29,39,22,7,10,5,-3,74,50,24,31.62,31.47,27,2,27,0.11
2012-3-1,26,18,6,16,6,-5,76,59,30,31.47,31.36,13,2,13,0.00
2012-3-2,26,7,-4,8,-7,-14,64,53,24,31.61,31.39,17,3,17,0.00
2012-3-3,32,16,0,9,-2,-14,59,47,27,31.79,31.59,14,5,14,0.05
2012-3-4,48,29,13,15,10,3,64,47,22,31.88,31.77,15,4,15,0.00
2012-3-5,53,27,6,15,5,-3,68,42,21,31.85,31.68,21,3,21,0.00
2012-3-6,52,35,14,14,5,-5,48,29,21,31.68,31.37,33,7,33,0.00
2012-3-7,44,31,15,15,6,-5,69,37,21,31.71,31.39,19,5,19,0.00
2012-3-8,45,24,6,16,5,-3,76,49,21,32.02,31.71,9,2,9,0.00
2012-3-9,50,26,3,14,2,-6,64,38,21,32.02,31.85,12,3,12,0.00
2012-3-10,52,30,7,24,8,-8,82,44,22,31.86,31.60,20,3,20,0.00
2012-3-11,50,32,18,17,9,1,84,43,21,31.60,31.51,17,4,17,0.00
2012-3-12,53,35,20,15,8,0,52,35,21,31.76,31.59,15,3,15,0.00
2012-3-13,53,36,17,15,8,-2,55,32,21,31.76,31.65,27,5,27,0.00
2012-3-14,54,37,19,14,4,-24,37,26,20,31.81,31.71,17,3,17,0.00
2012-3-15,55,35,17,19,10,-1,62,37,21,31.88,31.79,13,2,13,0.00
2012-3-16,57,37,20,23,15,-13,76,45,21,31.98,31.65,21,3,21,0.00
2012-3-17,55,37,19,21,12,4,68,39,20,31.67,31.50,15,4,15,0.00
2012-3-18,45,33,17,27,14,-1,92,48,24,31.50,31.23,30,8,30,0.00
2012-3-19,32,18,5,5,-1,-8,69,47,21,31.81,31.27,14,3,14,0.00
2012-3-20,39,22,6,23,2,-5,67,44,23,31.82,31.42,60,4,60,0.00
2012-3-21,48,30,16,23,14,2,68,51,32,31.75,31.67,16,1,16,0.00
2012-3-22,57,37,21,24,16,9,76,47,20,31.77,31.65,14,3,14,0.00
2012-3-23,62,40,20,23,15,-17,74,42,19,31.95,31.75,17,3,17,0.00
2012-3-24,62,42,23,23,16,11,64,37,19,31.87,31.79,15,3,15,0.00
2012-3-25,64,44,26,23,18,1,68,39,17,31.95,31.71,23,3,23,0.00
2012-3-26,56,45,37,22,13,3,47,28,20,31.71,31.52,27,10,27,0.00
2012-3-27,57,42,27,18,11,4,49,29,20,31.80,31.63,31,6,31,0.00
2012-3-28,59,40,22,20,13,6,59,36,20,31.78,31.69,15,4,15,0.00
2012-3-29,57,40,26,22,12,4,53,33,20,31.74,31.68,18,4,18,0.00
2012-3-30,61,44,16,22,18,11,81,38,19,31.78,31.63,14,3,14,0.00
2012-3-31,66,45,28,29,19,7,72,40,17,31.78,31.63,21,3,21,0.00
2012-4-1,66,45,26,22,15,2,60,33,17,31.64,31.41,17,4,17,0.00
2012-4-2,38,30,24,30,21,6,86,69,35,31.66,31.42,19,5,19,0.00
2012-4-3,44,30,24,27,20,14,85,65,32,31.69,31.61,14,3,14,0.02
2012-4-4,58,39,24,26,18,12,77,48,21,31.68,31.61,17,4,17,0.00
2012-4-5,61,40,20,21,15,9,75,41,20,31.68,31.60,21,4,21,0.00
2012-4-6,56,42,23,22,11,-7,48,29,20,31.78,31.54,32,9,32,0.00
2012-4-7,56,36,17,18,4,-12,41,27,20,31.95,31.77,16,4,16,0.00
2012-4-8,60,38,15,19,10,-3,64,34,20,31.96,31.90,18,3,18,0.00
2012-4-9,62,41,17,20,10,-6,50,30,19,31.93,31.60,16,3,16,0.00
2012-4-10,67,44,22,26,16,7,64,36,16,31.89,31.78,15,3,15,0.00
2012-4-11,63,43,26,37,28,17,94,59,22,31.83,31.57,30,6,30,0.00
2012-4-12,51,37,24,37,19,6,94,52,23,31.60,31.47,21,5,21,0.00
2012-4-13,46,32,17,22,13,5,79,51,22,31.60,31.49,17,4,17,0.02
2012-4-14,42,30,22,22,17,5,85,61,25,31.49,31.32,16,3,16,0.00
2012-4-15,40,26,19,25,18,13,85,73,41,31.69,31.33,27,4,27,0.05
2012-4-16,45,30,17,22,15,5,86,58,25,31.86,31.68,15,3,15,0.04
2012-4-17,55,35,16,23,16,9,80,51,21,31.86,31.66,16,3,16,0.00
2012-4-18,60,40,21,29,19,13,81,49,21,31.85,31.69,18,4,57,0.00
2012-4-19,50,37,28,32,27,-17,92,68,29,31.81,31.69,17,4,17,0.01
2012-4-20,57,40,26,28,25,19,89,60,29,31.90,31.80,16,5,16,0.06
2012-4-21,65,47,34,30,22,15,68,42,18,31.96,31.87,26,5,26,0.00
2012-4-22,68,47,26,31,23,19,78,45,17,31.98,31.92,16,4,16,0.00
2012-4-23,70,48,26,31,21,15,85,42,14,31.99,31.86,14,3,17,0.00
2012-4-24,71,50,28,28,21,14,72,37,14,31.89,31.76,21,4,21,0.00
2012-4-25,71,50,30,33,21,7,57,35,14,31.86,31.61,17,4,17,0.00
2012-4-26,63,48,35,39,32,23,96,58,23,31.86,31.54,21,4,21,0.18
2012-4-27,51,41,34,35,23,2,94,55,22,31.74,31.52,27,6,27,0.20
2012-4-28,52,37,24,16,11,-2,57,36,21,31.73,31.60,21,5,21,0.00
2012-4-29,56,38,19,19,12,4,65,38,20,31.79,31.65,21,4,22,0.00
2012-4-30,61,42,19,19,12,6,58,31,19,31.78,31.68,21,4,21,0.00
2012-5-1,62,45,28,24,19,9,56,37,22,31.73,31.61,20,4,20,0.00
2012-5-2,67,48,30,29,22,17,69,41,17,31.75,31.64,18,4,18,0.00
2012-5-3,70,50,28,30,22,14,81,39,15,31.80,31.71,17,4,17,0.00
2012-5-4,71,52,31,24,17,6,55,28,14,31.80,31.75,20,4,20,0.00
2012-5-5,69,50,27,22,16,5,55,28,15,31.80,31.73,20,4,20,0.00
2012-5-6,57,42,27,37,27,16,82,58,29,31.82,31.75,23,6,23,0.00
2012-5-7,39,32,27,34,29,25,99,91,78,31.86,31.80,15,4,15,0.12
2012-5-8,56,39,27,34,26,18,93,65,24,31.87,31.81,12,2,12,0.00
2012-5-9,69,45,23,31,21,16,89,46,15,31.89,31.77,16,2,16,0.00
2012-5-10,68,48,27,26,20,15,66,37,15,31.80,31.67,15,3,15,0.00
2012-5-11,54,37,28,40,29,19,99,76,41,31.89,31.73,23,4,23,0.12
2012-5-12,58,41,30,41,32,8,99,76,35,31.94,31.30,19,3,19,0.20
2012-5-13,57,41,29,34,30,15,94,69,22,31.96,31.88,18,4,18,0.00
2012-5-14,68,46,23,31,21,14,93,48,15,31.99,31.89,13,3,13,0.00
2012-5-15,69,48,27,29,20,15,75,38,15,31.99,31.89,14,4,23,0.00
2012-5-16,68,47,32,40,28,18,84,51,16,31.95,31.82,17,3,17,0.00
2012-5-17,65,47,29,37,28,21,95,58,19,31.84,31.70,18,4,18,0.00
2012-5-18,68,58,12,23,19,5,73,24,15,31.62,31.46,23,8,23,0.07
2012-5-19,53,49,46,32,28,23,54,45,33,31.75,31.74,8,4,8,0.01
2012-5-20,67,51,41,31,25,20,62,38,17,31.98,31.89,13,3,13,0.00
2012-5-21,73,53,28,36,24,18,87,41,13,31.99,31.89,17,4,17,0.21
2012-5-22,77,64,38,32,22,14,67,22,13,31.85,31.63,23,6,23,0.00
2012-5-23,67,55,33,34,23,14,85,33,17,31.63,31.43,26,6,26,0.00
2012-5-24,58,43,28,32,20,6,95,49,20,31.61,31.49,24,4,24,0.14
2012-5-25,72,55,35,36,26,11,88,41,14,31.63,31.55,25,10,25,0.00
2012-5-26,70,57,44,23,19,7,36,23,14,31.65,31.50,31,10,31,0.00
2012-5-27,56,41,26,23,10,-7,53,29,20,31.77,31.62,23,5,23,0.00
2012-5-28,63,46,28,21,16,9,56,33,18,31.86,31.74,18,4,18,0.00
2012-5-29,70,49,25,22,16,6,58,30,14,31.88,31.80,19,3,19,0.00
2012-5-30,68,52,29,21,17,6,53,28,15,31.87,31.81,30,4,30,1.84
2012-5-31,73,48,35,32,26,17,61,44,15,31.88,31.82,11,2,12,0.00
2012-6-1,72,61,36,36,29,22,67,32,16,31.86,31.82,19,5,19,0.00
2012-6-2,73,52,34,39,33,24,78,53,17,31.86,31.77,19,3,19,0.02
2012-6-3,80,58,37,39,30,19,88,43,13,31.94,31.83,17,3,17,0.00
2012-6-4,78,56,35,43,31,22,93,45,14,31.97,31.86,24,5,24,0.02
2012-6-5,67,55,38,46,39,28,99,61,26,31.92,31.71,103,7,103,2.88
2012-6-6,78,59,34,40,28,18,87,36,13,31.80,31.73,15,4,17,0.00
2012-6-7,78,57,33,40,24,15,65,33,13,31.86,31.77,18,4,18,0.00
2012-6-8,80,59,32,36,22,14,56,28,13,31.87,31.72,18,4,18,0.00
2012-6-9,79,62,41,26,19,11,35,20,13,31.73,31.61,24,6,24,0.00
2012-6-10,67,54,35,24,17,-1,46,24,16,31.86,31.62,25,6,25,0.00
2012-6-11,72,50,25,22,11,-4,37,22,13,31.95,31.86,17,3,17,0.00
2012-6-12,74,54,29,28,18,8,64,28,13,31.96,31.86,19,4,19,0.00
2012-6-13,81,58,32,26,18,8,44,23,12,31.89,31.74,12,3,16,0.00
2012-6-14,81,59,33,26,19,9,45,23,12,31.83,31.77,23,4,23,0.00
2012-6-15,80,59,41,39,25,18,59,30,13,31.88,31.79,21,4,21,0.00
2012-6-16,77,58,36,40,26,18,67,33,13,31.96,31.87,21,4,21,0.00
2012-6-17,78,60,34,38,27,18,83,37,13,31.96,31.79,21,5,23,0.00
2012-6-18,84,64,40,31,22,14,48,23,12,31.79,31.68,19,4,19,0.00
2012-6-19,84,63,38,31,21,13,44,22,11,31.74,31.67,18,3,18,0.00
2012-6-20,78,62,42,41,24,14,62,27,13,31.96,31.71,21,4,21,0.00
2012-6-21,84,63,42,42,33,18,76,41,12,31.98,31.86,15,4,15,0.00
2012-6-22,86,64,39,40,28,18,70,32,12,31.92,31.78,22,5,22,0.00
2012-6-23,86,68,45,32,25,17,41,21,12,31.93,31.80,18,4,18,0.00
2012-6-24,84,65,45,43,29,22,49,29,12,32.00,31.92,34,3,34,0.01
2012-6-25,86,66,41,38,29,18,71,32,12,32.00,31.86,14,3,14,0.00
2012-6-26,83,64,44,42,34,25,63,35,15,31.92,31.85,16,4,16,0.00
2012-6-27,78,61,45,45,40,32,74,50,24,32.00,31.88,21,4,21,0.00
2012-6-28,84,58,41,50,42,32,93,63,17,32.06,31.98,16,4,17,0.20
2012-6-29,79,59,39,48,38,27,99,54,15,32.03,31.93,21,4,21,0.07
2012-6-30,81,60,38,43,32,23,83,42,12,31.96,31.89,24,4,24,0.01
2012-7-1,86,65,41,38,30,20,69,33,12,31.94,31.84,13,3,13,0.00
2012-7-2,82,64,46,47,36,25,62,39,13,31.94,31.89,19,3,19,0.01
2012-7-3,75,56,43,51,42,38,84,62,29,31.93,31.88,16,3,17,0.11
2012-7-4,81,57,42,50,43,30,94,66,16,31.94,31.85,20,2,20,0.04
2012-7-5,80,59,44,52,45,30,99,69,17,31.93,31.83,24,4,24,0.11
2012-7-6,76,56,42,51,47,42,99,76,30,32.04,31.92,17,3,18,0.09
2012-7-7,69,55,49,53,49,45,99,83,51,32.06,32.01,16,4,16,0.18
2012-7-8,74,56,46,52,48,40,99,80,34,32.06,31.98,15,3,15,0.02
2012-7-9,74,57,47,50,47,40,99,72,34,32.07,32.01,17,4,17,0.02
2012-7-10,82,59,38,50,40,23,99,61,12,32.06,31.97,15,4,15,0.00
2012-7-11,83,60,45,50,43,25,98,63,13,32.04,31.94,22,4,22,0.06
2012-7-12,80,60,40,49,40,28,99,58,16,32.04,31.97,17,4,17,0.07
2012-7-13,82,61,41,46,37,23,96,51,12,32.04,31.96,21,4,21,0.00
2012-7-14,72,57,47,50,45,40,99,67,35,32.02,31.98,17,3,17,0.02
2012-7-15,79,57,41,50,45,37,99,69,23,31.99,31.89,19,3,19,0.08
2012-7-16,74,54,41,53,45,35,99,75,27,31.94,31.84,16,3,16,0.39
2012-7-17,76,57,38,50,43,32,99,67,24,31.97,31.88,13,3,13,0.02
2012-7-18,77,55,39,53,44,31,99,74,22,32.04,31.96,17,2,17,0.13
2012-7-19,84,60,40,51,43,35,99,62,21,32.08,32.01,18,3,18,0.02
2012-7-20,88,64,42,46,39,23,90,49,13,32.08,32.01,13,3,15,0.00
2012-7-21,86,59,42,54,43,29,94,64,16,32.08,31.99,17,3,17,0.08
2012-7-22,80,59,43,50,44,33,99,64,22,32.07,31.99,21,3,21,0.06
2012-7-23,80,61,44,49,42,30,93,57,17,32.06,31.95,18,3,20,0.04
2012-7-24,80,60,42,48,42,32,95,58,22,31.99,31.84,17,3,17,0.04
2012-7-25,77,60,47,47,42,32,87,57,19,31.95,31.89,16,4,16,0.00
2012-7-26,81,61,41,45,37,26,90,48,14,32.02,31.94,13,3,13,0.00
2012-7-27,79,58,43,50,44,36,99,66,23,32.08,31.97,15,3,15,0.19
2012-7-28,69,55,45,54,49,44,99,83,47,32.08,32.01,12,2,12,0.37
2012-7-29,83,60,47,55,49,37,99,75,21,32.06,31.96,16,3,16,0.15
2012-7-30,77,60,45,59,51,44,99,76,36,32.04,31.96,12,2,12,0.20
2012-7-31,75,59,49,55,50,44,99,74,36,32.08,31.99,15,2,15,0.08
2012-8-1,76,56,43,51,47,42,99,78,34,32.08,31.96,14,2,19,0.41
2012-8-2,72,54,45,54,48,40,99,82,36,32.00,31.94,13,2,13,0.24
2012-8-3,78,57,38,50,38,22,99,59,15,31.95,31.87,14,3,14,0.01
2012-8-4,78,59,38,44,34,18,93,50,13,32.06,31.91,18,4,18,0.01
2012-8-5,80,60,39,46,37,26,97,51,15,32.10,32.03,12,3,13,0.01
2012-8-6,80,56,44,50,44,33,99,70,23,32.16,32.07,11,2,11,0.25
2012-8-7,79,59,45,53,44,26,99,66,17,32.13,32.03,21,3,21,0.13
2012-8-8,81,60,40,48,36,22,99,51,12,32.13,32.05,12,2,12,0.00
2012-8-9,80,60,41,44,38,30,81,50,17,32.09,32.03,15,2,15,0.00
2012-8-10,79,58,42,52,44,37,96,65,24,32.06,31.94,17,3,17,0.15
2012-8-11,74,58,43,53,43,33,99,65,24,32.02,31.93,20,4,20,0.17
2012-8-12,80,59,39,45,37,19,95,53,13,32.04,31.96,15,3,15,0.00
2012-8-13,56,49,42,50,44,38,97,83,64,32.04,31.96,11,2,11,0.17
2012-8-14,75,55,38,47,39,23,99,64,16,31.98,31.89,13,2,13,0.01
2012-8-15,75,56,39,46,38,29,98,57,20,31.97,31.90,11,2,11,0.00
2012-8-16,77,57,38,45,38,26,94,56,19,32.00,31.92,18,4,18,0.00
2012-8-17,77,57,40,46,38,24,98,59,18,32.02,31.91,21,4,21,0.04
2012-8-18,77,57,36,48,36,20,99,57,14,31.97,31.89,18,4,18,0.04
2012-8-19,79,58,35,41,31,20,91,45,13,31.97,31.89,18,4,18,0.00
2012-8-20,63,51,41,46,38,32,84,62,42,31.96,31.91,11,2,11,0.01
2012-8-21,76,55,36,44,34,22,99,53,17,31.99,31.91,11,2,11,0.00
2012-8-22,75,57,42,48,40,32,83,57,28,31.95,31.87,13,2,13,0.00
2012-8-23,72,53,46,52,48,42,99,84,35,31.90,31.83,10,2,10,0.41
2012-8-24,64,52,44,52,46,40,99,81,47,31.87,31.82,15,2,15,0.43
2012-8-25,74,56,38,45,39,28,99,60,21,31.94,31.86,12,2,12,0.01
2012-8-26,76,57,36,46,36,24,99,55,17,32.02,31.94,10,2,10,0.66
2012-8-27,78,57,42,49,42,37,86,60,25,32.11,32.03,14,3,14,0.01
2012-8-28,78,57,44,48,44,37,94,67,26,32.11,32.03,19,2,19,0.02
2012-8-29,78,54,40,51,44,36,99,77,24,32.05,31.95,17,2,17,0.17
2012-8-30,75,55,44,51,45,30,99,76,21,31.99,31.89,12,2,12,0.05
2012-8-31,76,53,38,50,43,36,99,75,24,31.99,31.93,15,2,17,0.11
2012-9-1,73,53,38,51,44,38,99,78,32,32.00,31.95,21,2,21,0.07
2012-9-2,73,54,42,49,43,28,98,71,20,32.00,31.95,13,2,13,0.01
2012-9-3,75,55,39,48,38,22,99,61,16,32.00,31.93,16,3,16,0.00
2012-9-4,73,54,34,41,29,20,94,48,14,32.00,31.92,18,3,18,0.00
2012-9-5,75,53,33,31,22,15,68,35,13,31.99,31.90,15,3,15,0.00
2012-9-6,75,53,31,29,22,17,62,34,13,31.97,31.89,14,2,14,0.00
2012-9-7,68,54,44,48,38,24,97,61,19,32.06,31.92,16,4,19,0.07
2012-9-8,73,52,31,40,28,18,98,50,13,32.08,31.97,12,3,12,0.00
2012-9-9,74,54,33,38,25,11,85,41,13,32.06,31.92,15,3,15,0.00
2012-9-10,73,54,35,37,28,15,71,40,15,31.97,31.86,10,2,10,0.00
2012-9-11,70,53,45,46,38,32,97,60,32,31.90,31.81,17,2,17,0.27
2012-9-12,50,44,40,47,43,40,99,96,84,32.02,31.86,13,3,13,0.45
2012-9-13,64,48,38,42,35,22,99,67,22,32.13,32.02,12,3,12,0.00
2012-9-14,67,47,29,39,28,20,98,56,17,32.14,32.03,12,3,12,0.00
2012-9-15,72,50,29,36,24,18,86,45,13,32.08,31.95,11,2,11,0.00
2012-9-16,70,50,29,30,20,15,67,36,14,31.98,31.87,17,3,17,0.00
2012-9-17,52,41,31,40,30,18,94,66,45,31.94,31.86,18,2,18,0.08
2012-9-18,68,47,27,31,24,18,88,48,16,31.98,31.92,13,3,13,0.00
2012-9-19,71,50,31,31,20,11,66,35,14,32.00,31.93,11,2,11,0.00
2012-9-20,70,48,28,29,20,14,69,37,14,31.99,31.91,10,2,11,0.00
2012-9-21,72,50,29,30,21,16,68,38,13,32.00,31.91,15,2,15,0.00
2012-9-22,72,50,30,32,23,15,76,40,13,32.02,31.93,11,2,11,0.00
2012-9-23,66,46,32,33,24,18,61,45,19,32.00,31.95,11,2,11,0.00
2012-9-24,49,44,40,44,38,31,95,81,57,31.96,31.88,7,2,7,0.09
2012-9-25,50,50,50,36,36,36,57,57,57,31.76,31.75,11,11,11,0.00
2012-9-26,52,37,32,37,33,31,96,86,49,31.88,31.83,15,2,15,0.05
2012-9-27,54,40,30,44,34,28,99,82,50,31.93,31.86,11,2,57,0.06
2012-9-28,65,44,26,38,30,24,96,66,23,31.94,31.85,11,2,11,0.00
2012-9-29,66,47,32,39,29,20,96,57,18,31.95,31.87,15,3,15,0.00
2012-9-30,61,42,30,35,28,24,85,62,24,31.96,31.91,11,2,11,0.00
2012-10-13,47,39,34,32,30,28,82,70,51,31.87,31.70,22,5,22,0.00
2012-10-14,52,40,30,32,29,25,88,68,38,31.98,31.86,14,4,14,0.00
2012-10-15,64,41,24,31,22,16,86,54,18,31.95,31.78,14,2,14,0.00
2012-10-16,64,47,33,36,24,18,93,45,18,31.81,31.52,28,5,28,0.09
2012-10-17,45,36,30,36,7,-1,94,32,21,31.75,31.56,29,6,30,0.15
2012-10-18,52,38,28,15,9,2,45,30,22,31.87,31.74,17,5,17,0.00
2012-10-19,64,43,29,22,16,10,57,35,18,31.87,31.74,16,4,16,0.00
2012-10-20,66,44,30,23,14,5,51,32,17,31.76,31.63,14,2,14,0.00
2012-10-21,61,41,24,22,16,8,57,39,21,31.72,31.64,15,2,15,0.00
2012-10-22,60,42,24,29,18,13,77,43,20,31.72,31.61,21,5,21,0.00
2012-10-23,59,47,38,34,20,10,82,37,20,31.67,31.60,26,6,26,0.00
2012-10-24,50,39,21,30,22,15,88,53,27,31.65,31.49,25,4,25,0.00
2012-10-25,35,22,14,16,11,0,81,66,24,31.76,31.61,17,2,17,0.00
2012-10-26,35,19,6,10,3,-5,76,52,22,31.89,31.73,9,2,9,0.05
2012-10-27,40,28,12,15,8,2,66,46,27,31.78,31.71,16,3,16,0.00
2012-10-28,48,37,24,25,20,9,68,50,36,31.86,31.75,15,4,18,0.00
2012-10-29,56,39,29,28,21,14,75,52,21,31.91,31.85,15,3,15,0.00
2012-10-30,58,38,24,28,18,7,77,49,21,31.94,31.84,11,2,12,0.00
2012-10-31,59,38,22,26,17,9,77,48,21,31.94,31.85,12,2,12,0.00
2012-11-1,59,36,21,24,14,1,76,45,20,31.90,31.75,17,2,17,0.00
2012-11-2,51,35,24,15,10,5,52,37,22,31.83,31.75,11,1,11,0.00
2012-11-3,52,32,16,20,11,5,68,44,21,31.91,31.82,13,2,13,0.00
2012-11-4,52,35,22,21,16,10,66,48,23,31.97,31.88,15,2,15,0.00
2012-11-5,54,38,28,29,23,19,77,56,26,31.98,31.90,18,4,18,0.00
2012-11-6,58,37,23,30,17,10,84,50,21,32.00,31.92,15,2,15,0.00
2012-11-7,63,37,19,22,14,6,70,43,18,31.95,31.77,11,2,11,0.00
2012-11-8,56,36,20,19,12,8,64,41,20,31.78,31.61,15,2,15,0.00
2012-11-9,51,37,24,31,21,9,96,57,26,31.62,31.42,23,6,23,0.00
2012-11-10,35,24,7,30,12,-7,92,61,24,31.42,31.29,23,4,23,0.00
2012-11-11,23,10,5,3,-4,-15,70,53,24,31.78,31.38,15,3,17,0.00
2012-11-12,38,18,3,11,-1,-13,66,45,23,31.90,31.78,17,3,17,0.04
2012-11-13,41,24,13,16,9,2,71,52,31,31.88,31.81,12,2,14,0.00
2012-11-14,47,27,9,13,5,-1,74,42,21,31.88,31.79,17,2,17,0.00
2012-11-15,46,28,16,13,6,0,62,40,22,31.93,31.83,15,1,15,0.00
2012-11-16,50,28,11,20,11,3,73,52,23,31.91,31.80,15,2,15,0.00
2012-11-17,50,33,23,25,15,6,72,50,24,31.84,31.73,17,3,17,0.00
2012-11-18,44,30,20,26,16,12,76,57,30,31.82,31.71,15,2,15,0.00
2012-11-19,47,31,19,23,14,4,81,53,21,31.93,31.81,8,1,8,0.00
2012-11-20,54,32,18,20,12,7,67,46,21,31.94,31.85,9,1,9,0.00
2012-11-21,56,32,17,18,7,-7,66,38,20,31.88,31.73,15,2,15,0.00
2012-11-22,49,34,21,21,9,-3,56,37,21,31.97,31.73,18,3,18,0.00
2012-11-23,50,31,18,35,9,2,89,44,21,32.02,31.96,13,2,13,0.00
2012-11-24,53,32,16,15,6,0,50,34,21,31.97,31.77,15,2,15,0.00
2012-11-25,51,30,14,14,6,0,56,37,21,31.77,31.61,22,2,22,0.00
2012-11-26,44,30,18,13,4,-7,59,34,21,31.87,31.68,15,3,15,0.00
2012-11-27,51,30,14,14,-2,-15,35,25,21,31.94,31.83,17,2,17,0.00
2012-11-28,49,26,12,14,0,-12,47,32,21,31.93,31.81,11,1,11,0.00
2012-11-29,50,31,18,23,13,-1,70,48,26,31.83,31.75,10,2,10,0.00
2012-11-30,53,32,16,23,14,8,74,51,22,31.81,31.68,13,2,14,0.00
2012-12-1,51,37,22,26,17,7,64,47,21,31.79,31.67,15,3,15,0.00
2012-12-2,52,32,14,24,10,2,63,42,21,31.77,31.59,23,3,23,0.00
2012-12-3,43,32,19,27,14,-1,85,50,21,31.85,31.58,15,3,16,0.00
2012-12-4,48,27,7,14,7,-2,71,45,21,31.95,31.85,15,2,15,0.00
2012-12-5,54,35,22,27,17,10,69,50,23,31.92,31.69,13,2,13,0.00
2012-12-6,44,30,17,28,19,10,78,64,37,31.70,31.59,11,1,11,0.00
2012-12-7,40,28,18,19,12,2,80,54,24,31.60,31.53,24,3,24,0.00
2012-12-8,36,24,15,17,11,2,83,59,25,31.54,31.40,23,3,23,0.00
2012-12-9,15,4,-9,9,-8,-22,77,58,36,31.62,31.43,11,2,11,0.00
2012-12-10,20,9,-3,8,-3,-19,69,56,39,31.59,31.49,17,3,17,0.00
2012-12-11,27,13,3,5,0,-7,70,55,30,31.58,31.51,12,2,13,0.00
2012-12-12,41,21,1,12,3,-8,76,49,25,31.64,31.55,28,3,28,0.02
2012-12-13,39,25,8,9,2,-3,64,39,24,31.68,31.61,17,4,17,0.00
2012-12-14,31,19,7,23,11,-3,85,71,63,31.61,31.29,13,1,14,0.01
2012-12-15,32,17,4,20,9,-4,79,70,54,31.47,31.41,8,1,8,0.00
2012-12-16,25,13,1,13,1,-6,76,59,37,31.50,31.39,15,2,15,0.00
2012-12-17,31,21,10,18,8,-1,71,55,43,31.50,31.40,17,3,17,0.00
2012-12-18,31,23,18,13,11,7,80,60,40,31.43,31.27,17,5,17,0.00
2012-12-19,19,10,-7,14,-1,-24,81,63,39,31.72,31.18,17,5,17,0.00
2012-12-20,34,7,-17,1,-14,-33,58,39,23,31.85,31.72,11,2,11,0.02
2012-12-21,35,12,-2,7,-5,-13,65,47,24,31.86,31.75,6,1,6,0.01
2012-12-22,45,20,3,8,-5,-16,61,35,21,31.78,31.63,17,1,17,0.00
2012-12-23,37,22,9,12,-2,-16,59,35,21,31.66,31.58,17,2,17,0.00
2012-12-24,34,21,13,15,8,-1,79,58,32,31.58,31.32,17,4,17,0.00
2012-12-25,28,12,-5,8,1,-16,76,60,38,31.59,31.38,10,1,10,0.00
2012-12-26,28,10,-4,15,0,-15,76,63,43,31.54,31.25,15,3,15,0.00
2012-12-27,25,13,5,8,1,-4,74,59,42,31.39,31.24,11,2,11,0.00